Time;durP1;ratioP1;P1;durP2;ratioP2;P2;SDS_P1;SDS_P2;PMS_P1;PMS_P2;Temp;Humidity;BMP_temperature;BMP_pressure;BME280_temperature;BME280_humidity;BME280_pressure;Samples;Min_cycle;Max_cycle;Signal;HPM_P1;HPM_P2
2021/06/29 00:01:06;;;;;;;10.48;6.45;;;;;;;16.55;63.56;99442.11;530086;1093;116066;-61
2021/06/29 00:11:16;;;;;;;10.97;6.50;;;;;;;16.39;64.36;99435.58;531017;1093;117493;-62
2021/06/29 00:21:22;;;;;;;14.37;7.00;;;;;;;16.22;64.31;99439.76;529178;1092;116245;-62
2021/06/29 00:31:29;;;;;;;8.57;6.87;;;;;;;16.03;64.68;99437.91;530146;1093;116810;-62
2021/06/29 00:41:35;;;;;;;7.63;6.23;;;;;;;15.94;65.05;99430.81;530152;1093;116024;-61
2021/06/29 00:51:42;;;;;;;9.67;6.47;;;;;;;15.91;65.36;99415.17;529923;1092;116333;-61
2021/06/29 01:01:49;;;;;;;10.40;7.30;;;;;;;15.93;65.93;99421.19;529931;1092;116913;-62
2021/06/29 01:11:55;;;;;;;16.60;8.63;;;;;;;15.76;65.88;99407.60;529447;1093;120851;-62
2021/06/29 01:22:03;;;;;;;11.93;7.23;;;;;;;15.62;66.03;99392.12;530858;1093;117116;-62
2021/06/29 01:32:14;;;;;;;8.75;5.85;;;;;;;15.45;66.25;99402.36;531030;1093;116369;-62
2021/06/29 01:42:21;;;;;;;10.33;7.15;;;;;;;15.46;66.61;99405.86;529240;1093;116508;-61
2021/06/29 01:52:27;;;;;;;10.17;6.60;;;;;;;15.49;66.56;99387.91;530993;1092;115911;-62
2021/06/29 02:02:34;;;;;;;9.37;7.30;;;;;;;15.34;66.50;99378.66;526179;1092;116714;-63
2021/06/29 02:12:41;;;;;;;8.83;7.40;;;;;;;15.23;66.89;99377.78;513919;1093;116610;-62
2021/06/29 02:22:49;;;;;;;10.57;7.10;;;;;;;15.09;66.93;99367.58;531022;1092;117163;-62
2021/06/29 02:32:55;;;;;;;10.37;6.73;;;;;;;15.14;67.50;99368.03;530238;1092;117910;-62
2021/06/29 02:43:02;;;;;;;9.17;7.37;;;;;;;15.32;67.00;99370.02;531027;1093;117285;-67
2021/06/29 02:53:08;;;;;;;7.23;6.53;;;;;;;15.72;66.74;99374.45;531114;1093;115774;-62
2021/06/29 03:03:15;;;;;;;8.90;6.50;;;;;;;18.58;65.15;99371.49;530250;1092;115709;-62
2021/06/29 03:13:21;;;;;;;11.07;6.77;;;;;;;21.21;60.63;99373.09;531104;1093;115953;-62
2021/06/29 03:23:27;;;;;;;8.23;6.97;;;;;;;21.55;57.24;99379.94;531034;1093;116338;-62
2021/06/29 03:33:34;;;;;;;12.97;8.23;;;;;;;22.98;53.76;99375.98;530232;1093;117287;-61
2021/06/29 03:43:40;;;;;;;8.37;7.17;;;;;;;21.72;53.97;99379.86;530968;1092;116194;-62
2021/06/29 03:53:47;;;;;;;29.80;10.83;;;;;;;21.59;56.06;99374.23;530192;1092;115482;-62
2021/06/29 04:03:55;;;;;;;9.37;8.37;;;;;;;29.78;49.42;99369.80;530982;1093;117431;-62
2021/06/29 04:14:02;;;;;;;14.57;8.40;;;;;;;35.13;40.55;99367.00;530990;1092;116775;-62
2021/06/29 04:24:09;;;;;;;16.10;7.30;;;;;;;39.01;33.90;99374.73;530314;1093;116252;-60
2021/06/29 04:34:15;;;;;;;8.20;6.30;;;;;;;42.47;29.11;99377.34;531055;1092;115822;-62
2021/06/29 04:44:22;;;;;;;7.00;5.90;;;;;;;44.67;25.08;99368.25;530824;1093;116556;-62
2021/06/29 04:54:28;;;;;;;9.25;5.50;;;;;;;47.23;21.47;99362.84;530350;1092;115920;-62
2021/06/29 05:04:35;;;;;;;10.53;6.37;;;;;;;49.68;19.69;99360.00;531037;1093;116530;-62
2021/06/29 05:14:41;;;;;;;7.05;4.25;;;;;;;51.78;16.67;99357.48;531009;1093;117247;-63
2021/06/29 05:24:47;;;;;;;14.48;4.30;;;;;;;54.39;14.46;99351.38;530999;1093;117249;-63
2021/06/29 05:34:54;;;;;;;8.75;3.98;;;;;;;56.07;13.11;99336.09;530951;1092;117182;-66
2021/06/29 05:45:00;;;;;;;5.50;4.93;;;;;;;57.58;11.97;99337.50;530299;1092;115606;-64
2021/06/29 05:55:08;;;;;;;5.65;5.15;;;;;;;58.64;10.54;99353.42;530729;1093;116334;-64
2021/06/29 06:05:15;;;;;;;9.35;6.35;;;;;;;60.37;9.46;99346.92;531038;1093;117392;-64
2021/06/29 06:15:23;;;;;;;8.97;8.20;;;;;;;61.37;8.93;99336.70;530298;1092;117035;-64
2021/06/29 06:25:29;;;;;;;11.75;10.53;;;;;;;62.68;8.39;99343.52;530951;1092;115773;-64
2021/06/29 06:35:36;;;;;;;14.05;13.48;;;;;;;63.35;7.39;99325.52;530957;1093;117252;-64
2021/06/29 06:45:42;;;;;;;18.10;17.20;;;;;;;64.30;6.97;99330.83;531009;1093;116558;-64
2021/06/29 06:55:48;;;;;;;25.15;23.85;;;;;;;65.18;6.31;99323.42;530977;1093;117383;-63
2021/06/29 07:05:55;;;;;;;33.73;32.05;;;;;;;65.64;6.38;99324.42;530256;1092;117228;-64
2021/06/29 07:16:01;;;;;;;36.45;34.88;;;;;;;64.14;5.86;99298.55;531014;1092;116324;-64
2021/06/29 07:26:08;;;;;;;36.33;35.13;;;;;;;64.49;5.43;99295.34;531015;1093;117385;-64
2021/06/29 07:36:15;;;;;;;42.50;41.10;;;;;;;65.32;4.79;99284.83;530308;1093;115899;-64
2021/06/29 07:46:25;;;;;;;24.03;23.13;;;;;;;63.71;4.73;99284.13;530996;1093;117264;-64
2021/06/29 07:56:31;;;;;;;4.65;4.35;;;;;;;55.47;7.09;99276.25;531017;1093;116472;-63
2021/06/29 08:06:38;;;;;;;3.13;2.93;;;;;;;46.78;10.39;99290.49;530327;1092;116765;-63
2021/06/29 08:16:45;;;;;;;2.48;1.88;;;;;;;42.03;12.75;99299.13;531021;1092;116633;-63
2021/06/29 08:26:51;;;;;;;3.10;2.33;;;;;;;39.76;14.12;99296.20;530320;1092;116379;-63
2021/06/29 08:36:58;;;;;;;2.43;2.33;;;;;;;37.75;16.07;99291.28;531005;1092;116989;-63
2021/06/29 08:47:07;;;;;;;4.93;2.55;;;;;;;36.96;17.47;99301.08;530988;1093;117167;-62
2021/06/29 08:57:13;;;;;;;2.58;2.30;;;;;;;36.88;17.92;99302.48;530278;1092;116677;-62
2021/06/29 09:07:22;;;;;;;3.08;1.75;;;;;;;36.15;18.33;99302.71;531038;1092;116888;-63
2021/06/29 09:17:29;;;;;;;3.37;2.37;;;;;;;35.33;18.49;99276.18;531029;1093;116109;-63
2021/06/29 09:27:47;;;;;;;2.67;1.90;;;;;;;34.88;19.76;99273.06;530262;1092;116469;-62
2021/06/29 09:37:53;;;;;;;2.70;2.60;;;;;;;34.44;20.18;99264.14;531042;1092;115837;-63
2021/06/29 09:48:01;;;;;;;2.10;1.90;;;;;;;34.14;20.64;99264.80;530328;1092;116719;-62
2021/06/29 09:58:11;;;;;;;4.25;2.30;;;;;;;34.38;20.34;99257.84;531090;1093;117310;-62
2021/06/29 10:08:26;;;;;;;2.33;2.13;;;;;;;33.77;20.91;99258.25;531090;1093;116034;-62
2021/06/29 10:18:36;;;;;;;3.00;2.77;;;;;;;33.38;21.55;99245.66;530229;1092;115726;-62
2021/06/29 10:28:43;;;;;;;2.55;2.45;;;;;;;33.14;21.88;99231.58;530959;1092;117066;-62
2021/06/29 10:38:50;;;;;;;3.33;3.03;;;;;;;32.83;22.43;99218.42;530316;1092;116503;-62
2021/06/29 10:49:17;;;;;;;2.50;2.30;;;;;;;31.96;22.97;99218.95;531019;1093;116433;-63
2021/06/29 10:59:34;;;;;;;;;;;;;;;31.35;23.66;99214.19;531113;1092;116235;-62
2021/06/29 11:09:55;;;;;;;2.70;2.53;;;;;;;31.10;24.75;99199.06;530664;1092;102648;-62
2021/06/29 11:20:13;;;;;;;2.63;2.30;;;;;;;30.85;24.75;99203.79;531001;1092;117024;-62
2021/06/29 11:30:57;;;;;;;3.30;2.53;;;;;;;30.21;24.83;99174.84;530269;1092;116742;-62
2021/06/29 11:41:32;;;;;;;3.03;2.23;;;;;;;29.96;25.85;99166.98;530971;1093;118087;-63
2021/06/29 11:51:56;;;;;;;4.37;2.40;;;;;;;29.77;25.90;99158.98;530353;1093;116904;-62
2021/06/29 12:02:08;;;;;;;2.47;2.37;;;;;;;29.86;25.97;99151.33;531013;1093;116503;-63
2021/06/29 12:12:23;;;;;;;3.73;2.70;;;;;;;29.49;26.46;99134.29;530290;1092;117282;-62
2021/06/29 12:22:35;;;;;;;2.97;2.67;;;;;;;29.52;26.61;99127.59;530192;1092;116424;-62
2021/06/29 12:32:45;;;;;;;5.53;2.30;;;;;;;29.45;27.15;99116.90;530947;1093;116998;-64
2021/06/29 12:42:51;;;;;;;2.45;2.25;;;;;;;29.15;26.95;99098.84;530578;1092;183291;-62
2021/06/29 12:52:58;;;;;;;2.55;2.35;;;;;;;29.15;26.86;99089.94;530986;1092;116138;-62
2021/06/29 13:03:05;;;;;;;2.65;2.43;;;;;;;29.13;26.99;99067.70;530263;1092;117473;-62
2021/06/29 13:13:23;;;;;;;2.47;2.17;;;;;;;29.15;27.13;99060.20;531076;1093;116977;-62
2021/06/29 13:23:35;;;;;;;3.70;2.40;;;;;;;29.03;27.43;99052.91;531060;1092;116068;-62
2021/06/29 13:33:42;;;;;;;2.40;2.23;;;;;;;29.06;26.91;99044.33;530303;1092;116573;-62
2021/06/29 13:43:50;;;;;;;2.78;2.38;;;;;;;29.06;27.18;99046.19;530984;1092;116433;-62
2021/06/29 13:54:13;;;;;;;2.63;2.43;;;;;;;28.89;27.16;99037.95;530173;1092;118955;-62
2021/06/29 14:04:19;;;;;;;2.73;2.53;;;;;;;28.84;27.66;99029.73;530973;1092;117373;-62
2021/06/29 14:14:27;;;;;;;2.40;2.30;;;;;;;28.76;28.05;99012.77;531018;1092;116161;-62
2021/06/29 14:24:33;;;;;;;13.90;2.90;;;;;;;28.94;28.14;98997.56;530291;1092;116261;-62
2021/06/29 14:34:40;;;;;;;2.80;2.53;;;;;;;29.15;27.51;98979.13;530780;1093;116588;-63
2021/06/29 14:44:47;;;;;;;6.33;3.17;;;;;;;29.25;27.40;98979.33;530304;1092;116237;-60
2021/06/29 14:54:53;;;;;;;2.30;2.10;;;;;;;29.05;27.28;98958.91;530688;1092;117009;-61
2021/06/29 15:04:59;;;;;;;3.10;1.57;;;;;;;29.17;26.68;98949.97;531023;1093;116161;-62
2021/06/29 15:15:09;;;;;;;3.03;2.18;;;;;;;29.30;26.03;98944.31;530324;1093;117534;-62
2021/06/29 15:25:18;;;;;;;2.40;2.20;;;;;;;29.45;26.32;98935.73;530946;1092;116120;-62
2021/06/29 15:35:25;;;;;;;2.13;1.43;;;;;;;29.54;26.57;98936.17;530641;1092;115869;-63
2021/06/29 15:45:32;;;;;;;2.70;2.50;;;;;;;29.48;26.70;98937.11;530281;1092;117324;-61
2021/06/29 15:55:38;;;;;;;2.35;2.25;;;;;;;29.56;26.87;98938.65;530980;1093;115859;-62
2021/06/29 16:05:44;;;;;;;2.43;2.33;;;;;;;29.74;27.34;98933.04;530277;1093;116767;-63
2021/06/29 16:15:51;;;;;;;3.78;2.45;;;;;;;29.76;26.92;98917.38;531042;1092;116904;-62
2021/06/29 16:25:58;;;;;;;2.57;2.37;;;;;;;29.72;27.40;98905.41;531053;1093;116864;-62
2021/06/29 16:36:08;;;;;;;2.30;2.10;;;;;;;29.20;27.58;98896.27;530299;1092;115504;-62
2021/06/29 16:46:15;;;;;;;3.40;3.10;;;;;;;28.88;28.31;98885.86;531004;1092;115805;-62
2021/06/29 16:56:21;;;;;;;3.55;3.28;;;;;;;28.51;28.95;98894.97;531003;1092;116181;-62
2021/06/29 17:06:28;;;;;;;3.08;2.45;;;;;;;28.27;29.61;98887.91;530332;1093;115764;-62
2021/06/29 17:16:37;;;;;;;5.60;2.70;;;;;;;28.03;30.44;98871.64;531019;1092;115883;-62
2021/06/29 17:26:44;;;;;;;2.70;2.50;;;;;;;27.87;30.95;98865.83;530304;1092;115777;-63
2021/06/29 17:36:50;;;;;;;3.17;2.97;;;;;;;27.82;31.12;98866.55;531052;1092;116580;-63
2021/06/29 17:46:57;;;;;;;3.40;2.60;;;;;;;27.71;31.29;98869.19;531022;1092;116737;-62
2021/06/29 17:57:04;;;;;;;3.40;3.10;;;;;;;28.15;31.38;98869.78;530325;1092;116687;-63
2021/06/29 18:07:11;;;;;;;2.73;2.53;;;;;;;27.70;31.74;98868.35;531019;1092;116791;-61
2021/06/29 18:17:17;;;;;;;3.23;2.50;;;;;;;27.36;31.69;98866.08;531046;1092;116233;-61
2021/06/29 18:27:23;;;;;;;2.97;2.77;;;;;;;27.01;32.13;98864.00;529515;1092;116372;-61
2021/06/29 18:37:30;;;;;;;4.80;2.70;;;;;;;26.72;32.28;98874.41;531035;1093;116531;-62
2021/06/29 18:47:36;;;;;;;3.50;2.20;;;;;;;26.42;32.54;98869.72;531048;1092;116112;-62
2021/06/29 18:57:43;;;;;;;4.60;2.70;;;;;;;26.15;32.78;98869.91;530707;1092;116165;-62
2021/06/29 19:07:52;;;;;;;3.77;2.93;;;;;;;25.83;33.48;98891.42;531056;1093;116464;-62
2021/06/29 19:18:00;;;;;;;2.87;2.67;;;;;;;25.46;34.62;98881.23;530272;1092;116809;-63
2021/06/29 19:28:07;;;;;;;3.30;2.60;;;;;;;25.07;35.65;98886.52;529966;1092;117439;-63
2021/06/29 19:38:14;;;;;;;3.88;2.73;;;;;;;24.74;36.26;98893.58;530636;1092;116419;-63
2021/06/29 19:48:20;;;;;;;3.47;3.10;;;;;;;24.50;36.75;98881.61;530278;1093;116646;-63
2021/06/29 19:58:28;;;;;;;3.70;2.50;;;;;;;24.26;37.17;98891.13;529884;1093;116539;-63
2021/06/29 20:08:35;;;;;;;5.33;2.70;;;;;;;24.03;37.43;98894.98;530909;1092;116941;-64
2021/06/29 20:18:40;;;;;;;;;;;;;;;23.85;37.75;98879.48;530343;1092;117358;-61
2021/06/29 20:28:46;;;;;;;3.97;2.80;;;;;;;23.64;38.11;98874.05;531295;1092;102197;-62
2021/06/29 20:38:53;;;;;;;2.83;2.63;;;;;;;23.49;38.42;98868.86;530244;1093;116264;-62
2021/06/29 20:49:00;;;;;;;4.17;3.20;;;;;;;23.34;38.67;98862.81;531066;1093;116548;-62
2021/06/29 20:59:08;;;;;;;2.93;2.70;;;;;;;23.19;38.90;98873.63;513651;1092;175680;-63
2021/06/29 21:09:13;;;;;;;;;;;;;;;22.98;39.37;98848.63;529483;1092;116532;-63
2021/06/29 21:19:19;;;;;;;3.87;2.80;;;;;;;22.85;39.50;98841.33;531234;1092;102691;-62
2021/06/29 21:29:31;;;;;;;4.37;3.87;;;;;;;22.76;39.61;98827.29;531022;1093;118611;-63
2021/06/29 21:39:42;;;;;;;4.13;3.40;;;;;;;22.71;39.64;98823.55;531041;1092;116829;-63
2021/06/29 21:49:53;;;;;;;4.17;2.70;;;;;;;22.70;40.06;98813.88;531073;1093;117701;-63
2021/06/29 22:00:09;;;;;;;5.03;3.27;;;;;;;22.64;40.61;98807.46;530322;1092;116565;-62
2021/06/29 22:10:20;;;;;;;4.20;3.33;;;;;;;22.55;41.08;98798.73;530965;1092;117586;-62
2021/06/29 22:20:31;;;;;;;4.80;3.00;;;;;;;22.44;41.32;98788.55;531034;1092;118018;-63
2021/06/29 22:30:43;;;;;;;4.60;3.50;;;;;;;22.27;41.74;98778.17;531011;1093;116291;-63
2021/06/29 22:40:54;;;;;;;5.47;3.20;;;;;;;22.12;42.55;98767.56;531077;1092;116505;-63
2021/06/29 22:51:01;;;;;;;3.63;3.28;;;;;;;22.04;42.67;98752.50;530343;1093;117360;-62
2021/06/29 23:01:12;;;;;;;3.40;3.10;;;;;;;21.98;43.08;98732.72;531038;1092;116414;-63
2021/06/29 23:11:23;;;;;;;4.97;3.57;;;;;;;21.88;44.01;98721.53;531055;1093;116557;-63
2021/06/29 23:21:35;;;;;;;4.63;3.27;;;;;;;21.82;44.12;98701.75;530318;1092;116611;-62
2021/06/29 23:31:47;;;;;;;3.67;3.37;;;;;;;21.72;44.28;98682.56;531061;1093;116474;-63
2021/06/29 23:41:58;;;;;;;3.73;3.43;;;;;;;21.67;44.63;98676.98;530311;1092;117088;-62
2021/06/29 23:52:10;;;;;;;4.10;3.80;;;;;;;21.58;45.20;98699.47;531047;1092;116455;-62
